sensor_id;sensor_type;location;lat;lon;timestamp;temperature;humidity
16625;DHT22;8426;48.496;9.098;2023-06-14T00:01:13;10.90;99.90
16625;DHT22;8426;48.496;9.098;2023-06-14T00:06:19;10.90;99.90
16625;DHT22;8426;48.496;9.098;2023-06-14T00:11:24;10.70;99.90
16625;DHT22;8426;48.496;9.098;2023-06-14T00:16:28;10.70;99.90
16625;DHT22;8426;48.496;9.098;2023-06-14T00:21:32;10.70;99.90
16625;DHT22;8426;48.496;9.098;2023-06-14T00:26:41;10.50;99.90
16625;DHT22;8426;48.496;9.098;2023-06-14T00:31:44;10.50;99.90
16625;DHT22;8426;48.496;9.098;2023-06-14T00:36:48;10.40;99.90
16625;DHT22;8426;48.496;9.098;2023-06-14T00:41:55;10.40;99.90
16625;DHT22;8426;48.496;9.098;2023-06-14T00:47:00;10.30;99.90
16625;DHT22;8426;48.496;9.098;2023-06-14T00:52:07;10.20;99.90
16625;DHT22;8426;48.496;9.098;2023-06-14T00:57:16;10.10;99.90
16625;DHT22;8426;48.496;9.098;2023-06-14T01:02:20;10.00;99.90
16625;DHT22;8426;48.496;9.098;2023-06-14T01:07:31;9.90;99.90
16625;DHT22;8426;48.496;9.098;2023-06-14T01:12:44;9.60;99.90
16625;DHT22;8426;48.496;9.098;2023-06-14T01:17:54;9.40;99.90
16625;DHT22;8426;48.496;9.098;2023-06-14T01:23:09;9.30;99.90
16625;DHT22;8426;48.496;9.098;2023-06-14T01:28:16;9.30;99.90
16625;DHT22;8426;48.496;9.098;2023-06-14T01:33:23;9.30;99.90
16625;DHT22;8426;48.496;9.098;2023-06-14T01:38:29;9.30;99.90
16625;DHT22;8426;48.496;9.098;2023-06-14T01:43:36;9.30;99.90
16625;DHT22;8426;48.496;9.098;2023-06-14T01:48:42;9.30;99.90
16625;DHT22;8426;48.496;9.098;2023-06-14T01:53:48;9.20;99.90
16625;DHT22;8426;48.496;9.098;2023-06-14T01:58:53;9.10;99.90
16625;DHT22;8426;48.496;9.098;2023-06-14T02:03:58;9.00;99.90
16625;DHT22;8426;48.496;9.098;2023-06-14T02:09:04;8.90;99.90
16625;DHT22;8426;48.496;9.098;2023-06-14T02:14:07;8.90;99.90
16625;DHT22;8426;48.496;9.098;2023-06-14T02:19:13;8.80;99.90
16625;DHT22;8426;48.496;9.098;2023-06-14T02:24:18;8.70;99.90
16625;DHT22;8426;48.496;9.098;2023-06-14T02:29:22;8.50;99.90
16625;DHT22;8426;48.496;9.098;2023-06-14T02:34:26;8.50;99.90
16625;DHT22;8426;48.496;9.098;2023-06-14T02:39:30;8.50;99.90
16625;DHT22;8426;48.496;9.098;2023-06-14T02:44:35;8.40;99.90
16625;DHT22;8426;48.496;9.098;2023-06-14T02:49:39;8.40;99.90
16625;DHT22;8426;48.496;9.098;2023-06-14T02:54:44;8.50;99.90
16625;DHT22;8426;48.496;9.098;2023-06-14T02:59:52;8.50;99.90
16625;DHT22;8426;48.496;9.098;2023-06-14T03:04:56;8.40;99.90
16625;DHT22;8426;48.496;9.098;2023-06-14T03:10:05;8.30;99.90
16625;DHT22;8426;48.496;9.098;2023-06-14T03:15:10;8.30;99.90
16625;DHT22;8426;48.496;9.098;2023-06-14T03:20:15;8.10;99.90
16625;DHT22;8426;48.496;9.098;2023-06-14T03:25:21;8.00;99.90
16625;DHT22;8426;48.496;9.098;2023-06-14T03:30:24;8.00;99.90
16625;DHT22;8426;48.496;9.098;2023-06-14T03:35:28;8.10;99.90
16625;DHT22;8426;48.496;9.098;2023-06-14T03:40:33;8.10;99.90
16625;DHT22;8426;48.496;9.098;2023-06-14T03:45:37;8.00;99.90
16625;DHT22;8426;48.496;9.098;2023-06-14T03:50:40;8.20;99.90
16625;DHT22;8426;48.496;9.098;2023-06-14T03:55:46;8.30;99.90
16625;DHT22;8426;48.496;9.098;2023-06-14T04:00:54;8.40;99.90
16625;DHT22;8426;48.496;9.098;2023-06-14T04:05:58;8.40;99.90
16625;DHT22;8426;48.496;9.098;2023-06-14T04:11:03;8.60;99.90
16625;DHT22;8426;48.496;9.098;2023-06-14T04:16:07;8.70;99.90
16625;DHT22;8426;48.496;9.098;2023-06-14T04:21:10;8.90;99.90
16625;DHT22;8426;48.496;9.098;2023-06-14T04:26:16;9.10;99.90
16625;DHT22;8426;48.496;9.098;2023-06-14T04:31:19;9.30;99.90
16625;DHT22;8426;48.496;9.098;2023-06-14T04:36:23;9.50;99.90
16625;DHT22;8426;48.496;9.098;2023-06-14T04:41:28;9.70;99.90
16625;DHT22;8426;48.496;9.098;2023-06-14T04:46:32;10.00;99.90
16625;DHT22;8426;48.496;9.098;2023-06-14T04:51:48;10.30;99.90
16625;DHT22;8426;48.496;9.098;2023-06-14T04:57:03;10.40;99.90
16625;DHT22;8426;48.496;9.098;2023-06-14T05:02:07;10.70;99.90
16625;DHT22;8426;48.496;9.098;2023-06-14T05:07:11;10.90;99.90
16625;DHT22;8426;48.496;9.098;2023-06-14T05:12:18;11.20;99.90
16625;DHT22;8426;48.496;9.098;2023-06-14T05:17:22;11.50;99.90
16625;DHT22;8426;48.496;9.098;2023-06-14T05:22:26;11.70;99.90
16625;DHT22;8426;48.496;9.098;2023-06-14T05:27:30;11.80;99.90
16625;DHT22;8426;48.496;9.098;2023-06-14T05:32:36;11.80;99.90
16625;DHT22;8426;48.496;9.098;2023-06-14T05:37:39;11.90;99.90
16625;DHT22;8426;48.496;9.098;2023-06-14T05:42:45;12.40;99.90
16625;DHT22;8426;48.496;9.098;2023-06-14T05:47:49;17.00;99.90
16625;DHT22;8426;48.496;9.098;2023-06-14T05:52:53;21.70;99.90
16625;DHT22;8426;48.496;9.098;2023-06-14T05:57:58;23.50;93.90
16625;DHT22;8426;48.496;9.098;2023-06-14T06:03:01;26.30;87.80
16625;DHT22;8426;48.496;9.098;2023-06-14T06:08:05;27.80;82.30
16625;DHT22;8426;48.496;9.098;2023-06-14T06:13:10;29.10;76.20
16625;DHT22;8426;48.496;9.098;2023-06-14T06:18:13;29.50;73.20
16625;DHT22;8426;48.496;9.098;2023-06-14T06:23:17;30.20;71.20
16625;DHT22;8426;48.496;9.098;2023-06-14T06:28:21;30.70;67.60
16625;DHT22;8426;48.496;9.098;2023-06-14T06:33:25;31.60;66.80
16625;DHT22;8426;48.496;9.098;2023-06-14T06:38:28;31.30;67.50
16625;DHT22;8426;48.496;9.098;2023-06-14T06:43:33;30.60;67.90
16625;DHT22;8426;48.496;9.098;2023-06-14T06:48:36;30.40;64.70
16625;DHT22;8426;48.496;9.098;2023-06-14T06:53:42;30.90;66.70
16625;DHT22;8426;48.496;9.098;2023-06-14T06:58:51;31.40;66.00
16625;DHT22;8426;48.496;9.098;2023-06-14T07:03:54;31.40;65.60
16625;DHT22;8426;48.496;9.098;2023-06-14T07:08:58;31.20;68.60
16625;DHT22;8426;48.496;9.098;2023-06-14T07:14:05;31.70;64.90
16625;DHT22;8426;48.496;9.098;2023-06-14T07:19:08;32.30;62.90
16625;DHT22;8426;48.496;9.098;2023-06-14T07:24:12;32.20;62.80
16625;DHT22;8426;48.496;9.098;2023-06-14T07:29:17;31.50;63.80
16625;DHT22;8426;48.496;9.098;2023-06-14T07:34:20;31.40;66.60
16625;DHT22;8426;48.496;9.098;2023-06-14T07:39:24;31.00;63.10
16625;DHT22;8426;48.496;9.098;2023-06-14T07:44:29;31.70;63.60
16625;DHT22;8426;48.496;9.098;2023-06-14T07:49:58;31.90;65.50
16625;DHT22;8426;48.496;9.098;2023-06-14T07:55:01;31.90;66.30
16625;DHT22;8426;48.496;9.098;2023-06-14T08:00:08;33.20;63.70
16625;DHT22;8426;48.496;9.098;2023-06-14T08:05:13;33.00;62.30
16625;DHT22;8426;48.496;9.098;2023-06-14T08:10:17;31.60;66.50
16625;DHT22;8426;48.496;9.098;2023-06-14T08:15:22;31.60;66.50
16625;DHT22;8426;48.496;9.098;2023-06-14T08:20:25;32.00;64.40
16625;DHT22;8426;48.496;9.098;2023-06-14T08:25:29;31.00;66.80
16625;DHT22;8426;48.496;9.098;2023-06-14T08:30:33;30.30;67.00
16625;DHT22;8426;48.496;9.098;2023-06-14T08:35:37;29.50;69.20
16625;DHT22;8426;48.496;9.098;2023-06-14T08:40:41;30.60;67.50
16625;DHT22;8426;48.496;9.098;2023-06-14T08:45:48;31.30;65.20
16625;DHT22;8426;48.496;9.098;2023-06-14T08:50:56;30.70;65.80
16625;DHT22;8426;48.496;9.098;2023-06-14T08:56:05;28.30;64.40
16625;DHT22;8426;48.496;9.098;2023-06-14T09:01:11;29.40;64.90
16625;DHT22;8426;48.496;9.098;2023-06-14T09:06:17;30.60;63.70
16625;DHT22;8426;48.496;9.098;2023-06-14T09:11:21;29.50;65.20
16625;DHT22;8426;48.496;9.098;2023-06-14T09:16:25;28.70;65.70
16625;DHT22;8426;48.496;9.098;2023-06-14T09:21:34;27.90;68.50
16625;DHT22;8426;48.496;9.098;2023-06-14T09:26:38;28.10;67.80
16625;DHT22;8426;48.496;9.098;2023-06-14T09:31:46;28.70;68.30
16625;DHT22;8426;48.496;9.098;2023-06-14T09:36:49;29.90;69.20
16625;DHT22;8426;48.496;9.098;2023-06-14T09:41:53;30.90;66.40
16625;DHT22;8426;48.496;9.098;2023-06-14T09:46:58;30.10;65.50
16625;DHT22;8426;48.496;9.098;2023-06-14T09:52:02;27.90;68.60
16625;DHT22;8426;48.496;9.098;2023-06-14T09:57:08;29.00;69.10
16625;DHT22;8426;48.496;9.098;2023-06-14T10:02:21;28.70;65.80
16625;DHT22;8426;48.496;9.098;2023-06-14T10:07:26;29.00;67.30
16625;DHT22;8426;48.496;9.098;2023-06-14T10:12:32;28.90;69.90
16625;DHT22;8426;48.496;9.098;2023-06-14T10:17:42;28.40;71.00
16625;DHT22;8426;48.496;9.098;2023-06-14T10:22:50;28.20;67.50
16625;DHT22;8426;48.496;9.098;2023-06-14T10:28:02;28.50;72.60
16625;DHT22;8426;48.496;9.098;2023-06-14T10:33:08;28.20;68.00
16625;DHT22;8426;48.496;9.098;2023-06-14T10:38:12;27.90;69.70
16625;DHT22;8426;48.496;9.098;2023-06-14T10:43:22;27.50;68.10
16625;DHT22;8426;48.496;9.098;2023-06-14T10:48:31;27.00;67.90
16625;DHT22;8426;48.496;9.098;2023-06-14T10:53:40;27.00;70.70
16625;DHT22;8426;48.496;9.098;2023-06-14T10:58:44;27.50;71.00
16625;DHT22;8426;48.496;9.098;2023-06-14T11:03:52;27.40;69.80
16625;DHT22;8426;48.496;9.098;2023-06-14T11:14:34;28.10;70.70
16625;DHT22;8426;48.496;9.098;2023-06-14T11:19:39;28.20;71.60
16625;DHT22;8426;48.496;9.098;2023-06-14T11:24:43;27.70;67.60
16625;DHT22;8426;48.496;9.098;2023-06-14T11:29:51;27.50;69.90
16625;DHT22;8426;48.496;9.098;2023-06-14T11:34:56;27.50;66.30
16625;DHT22;8426;48.496;9.098;2023-06-14T11:40:00;27.30;67.60
16625;DHT22;8426;48.496;9.098;2023-06-14T11:45:08;27.10;70.00
16625;DHT22;8426;48.496;9.098;2023-06-14T11:50:14;27.60;67.60
16625;DHT22;8426;48.496;9.098;2023-06-14T11:55:17;27.30;66.50
16625;DHT22;8426;48.496;9.098;2023-06-14T12:00:24;27.60;72.00
16625;DHT22;8426;48.496;9.098;2023-06-14T12:05:33;27.50;70.70
16625;DHT22;8426;48.496;9.098;2023-06-14T12:10:40;27.80;67.10
16625;DHT22;8426;48.496;9.098;2023-06-14T12:15:54;27.50;66.40
16625;DHT22;8426;48.496;9.098;2023-06-14T12:21:00;27.30;67.10
16625;DHT22;8426;48.496;9.098;2023-06-14T12:26:05;27.50;70.30
16625;DHT22;8426;48.496;9.098;2023-06-14T12:31:15;27.20;71.20
16625;DHT22;8426;48.496;9.098;2023-06-14T12:36:22;27.70;66.60
16625;DHT22;8426;48.496;9.098;2023-06-14T12:41:25;27.00;68.00
16625;DHT22;8426;48.496;9.098;2023-06-14T12:46:30;27.20;71.20
16625;DHT22;8426;48.496;9.098;2023-06-14T12:51:35;27.60;68.60
16625;DHT22;8426;48.496;9.098;2023-06-14T12:56:39;27.30;69.00
16625;DHT22;8426;48.496;9.098;2023-06-14T13:01:43;26.90;66.50
16625;DHT22;8426;48.496;9.098;2023-06-14T13:06:51;27.00;69.40
16625;DHT22;8426;48.496;9.098;2023-06-14T13:11:57;26.90;68.90
16625;DHT22;8426;48.496;9.098;2023-06-14T13:17:01;27.10;69.20
16625;DHT22;8426;48.496;9.098;2023-06-14T13:22:07;27.20;69.00
16625;DHT22;8426;48.496;9.098;2023-06-14T13:27:11;26.80;67.80
16625;DHT22;8426;48.496;9.098;2023-06-14T13:32:16;27.10;70.50
16625;DHT22;8426;48.496;9.098;2023-06-14T13:37:21;27.40;69.40
16625;DHT22;8426;48.496;9.098;2023-06-14T13:42:27;27.20;68.70
16625;DHT22;8426;48.496;9.098;2023-06-14T13:47:36;26.20;69.10
16625;DHT22;8426;48.496;9.098;2023-06-14T13:52:41;26.70;70.30
16625;DHT22;8426;48.496;9.098;2023-06-14T13:57:45;26.50;71.30
16625;DHT22;8426;48.496;9.098;2023-06-14T14:02:49;26.10;71.00
16625;DHT22;8426;48.496;9.098;2023-06-14T14:07:56;26.40;72.40
16625;DHT22;8426;48.496;9.098;2023-06-14T14:13:23;26.40;70.40
16625;DHT22;8426;48.496;9.098;2023-06-14T14:18:27;26.50;71.20
16625;DHT22;8426;48.496;9.098;2023-06-14T14:23:37;26.20;71.70
16625;DHT22;8426;48.496;9.098;2023-06-14T14:28:43;26.30;70.60
16625;DHT22;8426;48.496;9.098;2023-06-14T14:33:46;26.50;70.40
16625;DHT22;8426;48.496;9.098;2023-06-14T14:38:54;26.40;68.30
16625;DHT22;8426;48.496;9.098;2023-06-14T14:44:00;26.10;72.10
16625;DHT22;8426;48.496;9.098;2023-06-14T14:49:04;26.00;72.30
16625;DHT22;8426;48.496;9.098;2023-06-14T14:54:09;26.10;72.10
16625;DHT22;8426;48.496;9.098;2023-06-14T14:59:13;25.80;74.60
16625;DHT22;8426;48.496;9.098;2023-06-14T15:04:19;25.50;71.80
16625;DHT22;8426;48.496;9.098;2023-06-14T15:09:47;25.90;71.60
16625;DHT22;8426;48.496;9.098;2023-06-14T15:14:56;25.80;71.80
16625;DHT22;8426;48.496;9.098;2023-06-14T15:20:01;25.60;71.70
16625;DHT22;8426;48.496;9.098;2023-06-14T15:25:08;25.50;74.20
16625;DHT22;8426;48.496;9.098;2023-06-14T15:30:12;25.20;72.80
16625;DHT22;8426;48.496;9.098;2023-06-14T15:35:19;25.20;73.10
16625;DHT22;8426;48.496;9.098;2023-06-14T15:40:24;25.00;75.30
16625;DHT22;8426;48.496;9.098;2023-06-14T15:45:30;24.40;75.00
16625;DHT22;8426;48.496;9.098;2023-06-14T15:50:33;24.10;75.90
16625;DHT22;8426;48.496;9.098;2023-06-14T15:55:43;23.70;76.50
16625;DHT22;8426;48.496;9.098;2023-06-14T16:00:46;23.70;75.20
16625;DHT22;8426;48.496;9.098;2023-06-14T16:05:52;23.70;75.50
16625;DHT22;8426;48.496;9.098;2023-06-14T16:10:58;23.90;74.70
16625;DHT22;8426;48.496;9.098;2023-06-14T16:16:01;23.70;76.70
16625;DHT22;8426;48.496;9.098;2023-06-14T16:21:06;23.50;77.60
16625;DHT22;8426;48.496;9.098;2023-06-14T16:26:18;23.40;78.50
16625;DHT22;8426;48.496;9.098;2023-06-14T16:31:23;23.10;78.70
16625;DHT22;8426;48.496;9.098;2023-06-14T16:36:29;23.20;78.10
16625;DHT22;8426;48.496;9.098;2023-06-14T16:41:36;23.60;78.90
16625;DHT22;8426;48.496;9.098;2023-06-14T16:46:39;24.00;79.50
16625;DHT22;8426;48.496;9.098;2023-06-14T16:51:43;24.10;78.50
16625;DHT22;8426;48.496;9.098;2023-06-14T16:56:47;23.80;76.10
16625;DHT22;8426;48.496;9.098;2023-06-14T17:02:00;23.80;76.00
16625;DHT22;8426;48.496;9.098;2023-06-14T17:07:07;23.70;76.30
16625;DHT22;8426;48.496;9.098;2023-06-14T17:12:15;23.80;78.40
16625;DHT22;8426;48.496;9.098;2023-06-14T17:17:21;23.70;78.00
16625;DHT22;8426;48.496;9.098;2023-06-14T17:22:24;23.50;78.70
16625;DHT22;8426;48.496;9.098;2023-06-14T17:27:30;23.40;79.70
16625;DHT22;8426;48.496;9.098;2023-06-14T17:32:36;23.20;78.80
16625;DHT22;8426;48.496;9.098;2023-06-14T17:37:39;23.00;78.60
16625;DHT22;8426;48.496;9.098;2023-06-14T17:42:44;23.00;80.00
16625;DHT22;8426;48.496;9.098;2023-06-14T17:47:48;22.90;79.50
16625;DHT22;8426;48.496;9.098;2023-06-14T17:52:53;22.80;79.70
16625;DHT22;8426;48.496;9.098;2023-06-14T17:58:05;22.70;80.80
16625;DHT22;8426;48.496;9.098;2023-06-14T18:03:11;22.60;80.80
16625;DHT22;8426;48.496;9.098;2023-06-14T18:08:15;22.40;80.80
16625;DHT22;8426;48.496;9.098;2023-06-14T18:13:22;22.30;82.60
16625;DHT22;8426;48.496;9.098;2023-06-14T18:18:25;22.10;83.90
16625;DHT22;8426;48.496;9.098;2023-06-14T18:23:30;21.80;85.60
16625;DHT22;8426;48.496;9.098;2023-06-14T18:28:35;21.70;84.30
16625;DHT22;8426;48.496;9.098;2023-06-14T18:33:41;21.50;85.70
16625;DHT22;8426;48.496;9.098;2023-06-14T18:38:44;21.40;84.60
16625;DHT22;8426;48.496;9.098;2023-06-14T18:43:49;21.20;85.90
16625;DHT22;8426;48.496;9.098;2023-06-14T18:48:53;20.90;86.20
16625;DHT22;8426;48.496;9.098;2023-06-14T18:53:57;20.70;86.90
16625;DHT22;8426;48.496;9.098;2023-06-14T18:59:04;20.50;87.60
16625;DHT22;8426;48.496;9.098;2023-06-14T19:04:08;20.30;88.00
16625;DHT22;8426;48.496;9.098;2023-06-14T19:09:12;20.10;88.40
16625;DHT22;8426;48.496;9.098;2023-06-14T19:14:21;19.90;89.40
16625;DHT22;8426;48.496;9.098;2023-06-14T19:19:25;19.70;89.80
16625;DHT22;8426;48.496;9.098;2023-06-14T19:24:30;19.50;89.70
16625;DHT22;8426;48.496;9.098;2023-06-14T19:29:38;19.40;90.60
16625;DHT22;8426;48.496;9.098;2023-06-14T19:34:49;19.00;90.90
16625;DHT22;8426;48.496;9.098;2023-06-14T19:39:53;18.90;91.10
16625;DHT22;8426;48.496;9.098;2023-06-14T19:44:59;18.70;91.00
16625;DHT22;8426;48.496;9.098;2023-06-14T19:50:04;18.70;91.20
16625;DHT22;8426;48.496;9.098;2023-06-14T19:55:09;18.60;91.10
16625;DHT22;8426;48.496;9.098;2023-06-14T20:00:14;18.40;91.70
16625;DHT22;8426;48.496;9.098;2023-06-14T20:05:19;18.30;91.90
16625;DHT22;8426;48.496;9.098;2023-06-14T20:10:24;18.30;91.90
16625;DHT22;8426;48.496;9.098;2023-06-14T20:15:29;18.20;92.10
16625;DHT22;8426;48.496;9.098;2023-06-14T20:20:32;18.10;92.70
16625;DHT22;8426;48.496;9.098;2023-06-14T20:25:36;17.90;92.80
16625;DHT22;8426;48.496;9.098;2023-06-14T20:30:42;17.80;92.90
16625;DHT22;8426;48.496;9.098;2023-06-14T20:35:46;17.70;93.20
16625;DHT22;8426;48.496;9.098;2023-06-14T20:40:50;17.60;93.80
16625;DHT22;8426;48.496;9.098;2023-06-14T20:46:00;17.40;93.60
16625;DHT22;8426;48.496;9.098;2023-06-14T20:51:09;17.40;93.80
16625;DHT22;8426;48.496;9.098;2023-06-14T20:56:16;17.30;93.80
16625;DHT22;8426;48.496;9.098;2023-06-14T21:01:23;17.20;94.40
16625;DHT22;8426;48.496;9.098;2023-06-14T21:06:38;17.00;95.60
16625;DHT22;8426;48.496;9.098;2023-06-14T21:11:42;16.70;95.90
16625;DHT22;8426;48.496;9.098;2023-06-14T21:16:48;16.30;96.40
16625;DHT22;8426;48.496;9.098;2023-06-14T21:21:52;16.10;97.30
16625;DHT22;8426;48.496;9.098;2023-06-14T21:26:57;15.80;98.30
16625;DHT22;8426;48.496;9.098;2023-06-14T21:32:06;15.50;98.20
16625;DHT22;8426;48.496;9.098;2023-06-14T21:37:10;15.40;98.80
16625;DHT22;8426;48.496;9.098;2023-06-14T21:42:13;15.20;99.40
16625;DHT22;8426;48.496;9.098;2023-06-14T21:47:18;15.20;99.40
16625;DHT22;8426;48.496;9.098;2023-06-14T21:52:21;15.30;99.30
16625;DHT22;8426;48.496;9.098;2023-06-14T21:57:26;15.20;99.80
16625;DHT22;8426;48.496;9.098;2023-06-14T22:02:31;15.10;99.90
16625;DHT22;8426;48.496;9.098;2023-06-14T22:07:35;15.00;99.90
16625;DHT22;8426;48.496;9.098;2023-06-14T22:12:39;14.90;99.90
16625;DHT22;8426;48.496;9.098;2023-06-14T22:17:44;14.80;99.90
16625;DHT22;8426;48.496;9.098;2023-06-14T22:22:47;14.60;99.40
16625;DHT22;8426;48.496;9.098;2023-06-14T22:27:51;14.40;99.90
16625;DHT22;8426;48.496;9.098;2023-06-14T22:32:56;14.20;99.90
16625;DHT22;8426;48.496;9.098;2023-06-14T22:38:00;13.90;99.90
16625;DHT22;8426;48.496;9.098;2023-06-14T22:43:05;13.70;99.90
16625;DHT22;8426;48.496;9.098;2023-06-14T22:48:13;13.50;99.90
16625;DHT22;8426;48.496;9.098;2023-06-14T22:53:16;13.50;99.90
16625;DHT22;8426;48.496;9.098;2023-06-14T22:58:21;13.30;99.90
16625;DHT22;8426;48.496;9.098;2023-06-14T23:03:28;13.10;99.90
16625;DHT22;8426;48.496;9.098;2023-06-14T23:08:33;13.00;99.90
16625;DHT22;8426;48.496;9.098;2023-06-14T23:13:37;12.90;99.90
16625;DHT22;8426;48.496;9.098;2023-06-14T23:18:42;12.80;99.90
16625;DHT22;8426;48.496;9.098;2023-06-14T23:23:46;12.70;99.90
16625;DHT22;8426;48.496;9.098;2023-06-14T23:28:53;12.60;99.90
16625;DHT22;8426;48.496;9.098;2023-06-14T23:34:01;12.50;99.90
16625;DHT22;8426;48.496;9.098;2023-06-14T23:39:05;12.30;99.90
16625;DHT22;8426;48.496;9.098;2023-06-14T23:44:08;12.10;99.90
16625;DHT22;8426;48.496;9.098;2023-06-14T23:49:16;12.00;99.90
16625;DHT22;8426;48.496;9.098;2023-06-14T23:54:20;11.90;99.90
16625;DHT22;8426;48.496;9.098;2023-06-14T23:59:23;11.70;99.90
